Del Norte — WDC2280 — position and weather

sailwx.info

Track history (hours):
 
Tides and Currents Weather Stations Pressure Air Temp Water Temp Dewpoint Dewpoint Depression Visibility Wind Speed Wind Dir Waves Ship Positions

Del Norte

Owner: Golden Gate Bridge,Hwy & Transportation District, Larkspur, CA. More information available from US FCC via Universal Licensing System and Coast Guard Vessel Documentation Center.

Last reported at 2017-Nov-18 06:00 UTC. Time now 2017-Nov-22 09:22 UTC.
Position N 37°57' W 122°30'.

Length 49 m.

Type: High speed craft. MMSI: 366990520.

Date/timePositionNaut miles runAvg speedWind from/ knotsBaromVisibWave heightAir tempDewpointWater temp
2017-Nov-18 06:00N 37°57' W 122°30'1020.8
2017-Nov-18 05:30N 37°48' W 122°24'1019.1
2017-Nov-18 05:00N 37°56' W 122°30'0 0.4
2017-Nov-18 04:30N 37°56' W 122°29'1019.1
2017-Nov-18 04:00N 37°48' W 122°24'1020.2
2017-Nov-18 03:30N 37°56' W 122°30'0 0.8
2017-Nov-18 03:00N 37°57' W 122°30'1020.9
2017-Nov-18 02:30N 37°48' W 122°24'5 9.8
2017-Nov-18 02:01N 37°52' W 122°25'611.6
2017-Nov-18 01:31N 37°57' W 122°30'1020.7
2017-Nov-18 01:00N 37°48' W 122°24'4 8.3
2017-Nov-18 00:31N 37°52' W 122°25'713.1
2017-Nov-18 00:00N 37°57' W 122°30'1020.9
2017-Nov-17 23:30N 37°48' W 122°24'1019.5
2017-Nov-17 23:00N 37°56' W 122°30'1 1.2
2017-Nov-17 22:30N 37°57' W 122°30'0 0.0
2017-Nov-17 22:00N 37°57' W 122°30'1019.1
2017-Nov-17 21:31N 37°49' W 122°23'4 7.7
2017-Nov-17 21:00N 37°52' W 122°25'611.6
2017-Nov-17 20:30N 37°57' W 122°30'1020.0
2017-Nov-17 20:01N 37°49' W 122°23'4 7.5
2017-Nov-17 19:31N 37°52' W 122°25'612.7
2017-Nov-17 19:00N 37°57' W 122°30'3 6.1
2017-Nov-17 18:31N 37°55' W 122°27'815.7
2017-Nov-17 18:01N 37°48' W 122°24'713.4
2017-Nov-17 17:31N 37°54' W 122°27'4 8.0
2017-Nov-17 17:00N 37°57' W 122°30'1020.9
2017-Nov-17 16:30N 37°48' W 122°24'918.5
2017-Nov-17 16:01N 37°56' W 122°29'3 5.2
2017-Nov-17 15:31N 37°54' W 122°26'510.7
2017-Nov-17 15:00N 37°49' W 122°24'917.9
2017-Nov-17 14:30N 37°57' W 122°31'0 0.0
2017-Nov-17 14:00N 37°57' W 122°31'0 0.0
2017-Nov-17 06:00N 37°57' W 122°30'1021.1
2017-Nov-17 05:30N 37°48' W 122°24'1019.1
2017-Nov-17 05:00N 37°56' W 122°29'1 1.0
2017-Nov-17 04:30N 37°56' W 122°29'918.5
2017-Nov-17 04:00N 37°48' W 122°24'1020.3
2017-Nov-17 03:30N 37°57' W 122°30'0 0.5
2017-Nov-17 03:00N 37°57' W 122°30'1021.0
2017-Nov-17 02:30N 37°48' W 122°24'3 5.4
2017-Nov-17 02:01N 37°50' W 122°24'816.0
2017-Nov-17 01:30N 37°57' W 122°30'1021.0
2017-Nov-17 01:00N 37°48' W 122°24'4 8.4
2017-Nov-17 00:31N 37°52' W 122°25'713.1
2017-Nov-17 00:01N 37°57' W 122°30'1020.8
2017-Nov-16 23:30N 37°48' W 122°24'918.9
2017-Nov-16 23:00N 37°56' W 122°29'1 2.4
2017-Nov-16 22:30N 37°57' W 122°30'0 0.0
2017-Nov-16 22:00N 37°57' W 122°30'1020.2
2017-Nov-16 21:31N 37°49' W 122°23'3 6.4
2017-Nov-16 21:00N 37°51' W 122°25'713.6
2017-Nov-16 20:30N 37°57' W 122°30'1019.6
2017-Nov-16 20:01N 37°49' W 122°23'4 7.1
2017-Nov-16 19:30N 37°52' W 122°25'612.2
2017-Nov-16 19:00N 37°57' W 122°30'4 8.2
2017-Nov-16 18:31N 37°54' W 122°26'713.5
2017-Nov-16 18:00N 37°48' W 122°24'715.0
2017-Nov-16 17:31N 37°55' W 122°27'3 6.1
2017-Nov-16 17:01N 37°57' W 122°30'1020.5
2017-Nov-16 16:30N 37°48' W 122°24'1019.4
2017-Nov-16 16:00N 37°56' W 122°30'5 9.3
2017-Nov-16 15:31N 37°53' W 122°25'3 5.5
2017-Nov-16 15:01N 37°50' W 122°24'815.6
2017-Nov-16 14:30N 37°57' W 122°31'0 0.0
2017-Nov-16 14:00N 37°57' W 122°31'0 0.0
2017-Nov-16 05:59N 37°57' W 122°30'1021.5
2017-Nov-16 05:30N 37°48' W 122°24'1019.3
2017-Nov-16 05:00N 37°56' W 122°30'0 0.0
2017-Nov-16 04:30N 37°56' W 122°30'1019.3
2017-Nov-16 04:00N 37°48' W 122°24'1020.4
2017-Nov-16 03:30N 37°57' W 122°30'0 0.4
2017-Nov-16 03:00N 37°57' W 122°30'1020.9
2017-Nov-16 02:30N 37°48' W 122°24'3 5.3
2017-Nov-16 02:01N 37°50' W 122°24'815.9
2017-Nov-16 01:30N 37°57' W 122°30'1020.8
2017-Nov-16 01:00N 37°48' W 122°24'2 4.7
2017-Nov-16 00:31N 37°50' W 122°24'816.2
2017-Nov-16 00:00N 37°57' W 122°30'1021.0
2017-Nov-15 23:30N 37°48' W 122°24'918.7
2017-Nov-15 23:00N 37°56' W 122°29'1 2.5
2017-Nov-15 22:30N 37°57' W 122°30'0 0.0
2017-Nov-15 22:00N 37°57' W 122°30'1020.4
2017-Nov-15 21:31N 37°48' W 122°23'3 6.7
2017-Nov-15 21:00N 37°51' W 122°25'713.6
2017-Nov-15 20:30N 37°57' W 122°30'1020.8
2017-Nov-15 20:01N 37°48' W 122°23'4 7.7
2017-Nov-15 19:31N 37°52' W 122°25'612.5
2017-Nov-15 19:00N 37°57' W 122°30'2 4.1
2017-Nov-15 18:30N 37°56' W 122°28'917.6
2017-Nov-15 18:00N 37°48' W 122°24'612.7
2017-Nov-15 17:30N 37°54' W 122°27'4 8.2
2017-Nov-15 17:00N 37°57' W 122°30'1020.7
2017-Nov-15 16:30N 37°48' W 122°24'1019.3
2017-Nov-15 16:00N 37°56' W 122°30'5 9.2
2017-Nov-15 15:31N 37°53' W 122°25'3 5.6
2017-Nov-15 15:01N 37°50' W 122°24'815.9
2017-Nov-15 14:30N 37°57' W 122°31'0 0.0
2017-Nov-15 14:00N 37°57' W 122°31'0 0.0
2017-Nov-15 05:59N 37°57' W 122°30'1021.4
2017-Nov-15 05:30N 37°48' W 122°24'1019.1
2017-Nov-15 05:00N 37°56' W 122°29'1 1.1
2017-Nov-15 04:30N 37°56' W 122°29'918.4
2017-Nov-15 04:01N 37°48' W 122°24'1020.5
2017-Nov-15 03:30N 37°57' W 122°30'0 0.3
2017-Nov-15 03:00N 37°57' W 122°30'1020.9
2017-Nov-15 02:30N 37°48' W 122°24'611.2
2017-Nov-15 02:00N 37°53' W 122°26'510.1
2017-Nov-15 01:30N 37°57' W 122°30'1021.0
2017-Nov-15 01:00N 37°48' W 122°24'2 4.6
2017-Nov-15 00:30N 37°50' W 122°24'816.4
2017-Nov-15 00:00N 37°57' W 122°30'1020.8
2017-Nov-14 23:31N 37°48' W 122°24'1019.3
2017-Nov-14 23:00N 37°56' W 122°30'1 1.7
2017-Nov-14 22:30N 37°57' W 122°30'0 0.0
2017-Nov-14 22:00N 37°57' W 122°30'1019.6
2017-Nov-14 21:31N 37°49' W 122°23'2 4.5
2017-Nov-14 21:00N 37°51' W 122°24'815.0
2017-Nov-14 20:30N 37°57' W 122°30'1019.8
2017-Nov-14 20:01N 37°49' W 122°23'3 6.7
2017-Nov-14 19:30N 37°52' W 122°25'713.2
2017-Nov-14 19:00N 37°57' W 122°30'5 9.5
2017-Nov-14 18:30N 37°54' W 122°26'612.2
2017-Nov-14 18:00N 37°48' W 122°24'1019.8
2017-Nov-14 17:30N 37°56' W 122°30'2 3.6
2017-Nov-14 17:00N 37°56' W 122°28'816.7
2017-Nov-14 16:30N 37°48' W 122°24'1019.5
2017-Nov-14 16:00N 37°56' W 122°30'4 7.2
2017-Nov-14 15:30N 37°54' W 122°26'510.6
2017-Nov-14 15:00N 37°50' W 122°24'917.7
2017-Nov-14 14:30N 37°57' W 122°31'0 0.0
2017-Nov-14 14:00N 37°57' W 122°31'0 0.0
2017-Nov-14 06:00N 37°57' W 122°30'1020.8
2017-Nov-14 05:30N 37°48' W 122°24'917.7
2017-Nov-14 05:00N 37°56' W 122°28'1 1.4
2017-Nov-14 04:31N 37°56' W 122°29'918.6
2017-Nov-14 04:00N 37°48' W 122°24'1020.0
2017-Nov-14 03:30N 37°56' W 122°30'0 0.8
2017-Nov-14 03:00N 37°57' W 122°30'1020.9
2017-Nov-14 02:30N 37°48' W 122°24'3 6.6
2017-Nov-14 02:01N 37°51' W 122°24'714.8
2017-Nov-14 01:30N 37°57' W 122°30'1020.9
2017-Nov-14 01:00N 37°48' W 122°24'3 6.3
2017-Nov-14 00:31N 37°51' W 122°25'814.9
2017-Nov-14 00:00N 37°57' W 122°30'1021.0
2017-Nov-13 23:31N 37°48' W 122°24'918.4
2017-Nov-13 23:01N 37°56' W 122°29'2 3.0
2017-Nov-13 22:30N 37°57' W 122°31'0 0.0
2017-Nov-13 22:00N 37°57' W 122°31'  
2017-Nov-11 04:47N 37°57' W 122°31'0 0.0
2017-Nov-11 04:30N 37°57' W 122°31'0 0.1
2017-Nov-11 04:00N 37°57' W 122°30'714.2
2017-Nov-11 03:31N 37°52' W 122°24'1 1.2
2017-Nov-11 03:01N 37°51' W 122°25'714.4
2017-Nov-11 02:30N 37°57' W 122°30'1021.1
2017-Nov-11 02:00N 37°48' W 122°24'4 8.1
2017-Nov-11 01:31N 37°52' W 122°25'713.4
2017-Nov-11 01:01N 37°57' W 122°30'1020.8
2017-Nov-11 00:30N 37°48' W 122°24'5 9.4
2017-Nov-11 00:00N 37°52' W 122°25'612.1
2017-Nov-10 23:30N 37°57' W 122°30'1021.4
2017-Nov-10 23:01N 37°48' W 122°24'714.1
2017-Nov-10 22:30N 37°54' W 122°27'4 7.4
2017-Nov-10 22:00N 37°57' W 122°31'0 0.0
2017-Nov-10 21:30N 37°57' W 122°31'0 0.0
2017-Nov-10 21:01N 37°57' W 122°31'0 0.0
2017-Nov-10 20:30N 37°57' W 122°31'0 0.1
2017-Nov-10 19:59N 37°57' W 122°30'0 0.0
2017-Nov-10 19:30N 37°57' W 122°30'918.8
2017-Nov-10 19:01N 37°49' W 122°24'3 5.2
2017-Nov-10 18:31N 37°52' W 122°25'713.5
2017-Nov-10 18:00N 37°57' W 122°30'3 5.3
2017-Nov-10 17:30N 37°55' W 122°28'816.3
2017-Nov-10 17:00N 37°48' W 122°24'1019.2
2017-Nov-10 16:30N 37°56' W 122°29'0 0.1
2017-Nov-10 16:00N 37°56' W 122°29'919.1
2017-Nov-10 15:31N 37°48' W 122°24'1020.8
2017-Nov-10 15:00N 37°57' W 122°30'817.0
2017-Nov-10 14:31N 37°50' W 122°24'612.2
2017-Nov-10 14:00N 37°55' W 122°28'2 0.3
2017-Nov-10 06:00N 37°57' W 122°30'1021.0
2017-Nov-10 05:30N 37°48' W 122°24'1019.1
2017-Nov-10 05:01N 37°56' W 122°29'0 0.7
2017-Nov-10 04:30N 37°56' W 122°29'918.1
2017-Nov-10 04:00N 37°48' W 122°24'1019.8
2017-Nov-10 03:30N 37°56' W 122°30'0 0.7
2017-Nov-10 03:00N 37°57' W 122°30'1021.0
2017-Nov-10 02:30N 37°48' W 122°24'5 9.4
2017-Nov-10 02:00N 37°52' W 122°25'612.2
2017-Nov-10 01:31N 37°57' W 122°30'1020.8
2017-Nov-10 01:00N 37°48' W 122°24'510.6
2017-Nov-10 00:31N 37°53' W 122°26'510.9
2017-Nov-10 00:00N 37°57' W 122°30'1021.0
2017-Nov-09 23:30N 37°48' W 122°24'1018.9
2017-Nov-09 22:59N 37°56' W 122°30'1 1.7
2017-Nov-09 22:31N 37°57' W 122°31'0 0.0
2017-Nov-09 22:00N 37°57' W 122°31'1020.6
2017-Nov-09 21:31N 37°48' W 122°23'4 8.9
2017-Nov-09 21:01N 37°52' W 122°25'612.0
2017-Nov-09 20:30N 37°57' W 122°31'1020.9
2017-Nov-09 20:01N 37°48' W 122°23'4 8.5
2017-Nov-09 19:31N 37°52' W 122°25'612.2
2017-Nov-09 19:00N 37°57' W 122°30'3 6.1
2017-Nov-09 18:31N 37°55' W 122°27'815.8
2017-Nov-09 18:00N 37°48' W 122°24'714.2
2017-Nov-09 17:31N 37°54' W 122°27'3 6.9
2017-Nov-09 17:00N 37°57' W 122°30'1020.9
2017-Nov-09 16:30N 37°48' W 122°24'1018.4
2017-Nov-09 15:58N 37°56' W 122°30'4 7.9
2017-Nov-09 15:31N 37°54' W 122°26'5 9.2
2017-Nov-09 15:01N 37°50' W 122°24'917.1
2017-Nov-09 14:30N 37°57' W 122°31'0 0.0
2017-Nov-09 14:00N 37°57' W 122°31'0 0.0
2017-Nov-09 06:04N 37°57' W 122°30'1 8.1
2017-Nov-09 06:00N 37°56' W 122°30'1019.9
2017-Nov-09 05:30N 37°48' W 122°24'1019.3
2017-Nov-09 05:00N 37°56' W 122°30'0 0.8
2017-Nov-09 04:30N 37°56' W 122°29'918.4
2017-Nov-09 04:00N 37°48' W 122°24'1020.1
2017-Nov-09 03:30N 37°57' W 122°30'0 0.5
2017-Nov-09 03:00N 37°57' W 122°30'1020.8
2017-Nov-09 02:30N 37°48' W 122°24'2 5.0
2017-Nov-09 02:01N 37°50' W 122°24'816.2
2017-Nov-09 01:30N 37°57' W 122°30'1020.9
2017-Nov-09 01:00N 37°48' W 122°24'4 8.4
2017-Nov-09 00:31N 37°52' W 122°25'712.9
2017-Nov-09 00:00N 37°57' W 122°30'1021.1
2017-Nov-08 23:30N 37°48' W 122°24'918.9
2017-Nov-08 23:01N 37°56' W 122°29'1 2.3
2017-Nov-08 22:30N 37°57' W 122°30'0 0.0
2017-Nov-08 22:00N 37°57' W 122°30'1020.2
2017-Nov-08 21:31N 37°49' W 122°23'3 6.3
2017-Nov-08 21:01N 37°51' W 122°25'713.9
2017-Nov-08 20:30N 37°57' W 122°30'1020.0
2017-Nov-08 20:01N 37°49' W 122°23'4 7.1
2017-Nov-08 19:31N 37°52' W 122°25'612.9
2017-Nov-08 19:00N 37°57' W 122°30'2 4.5
2017-Nov-08 18:30N 37°56' W 122°28'917.2
2017-Nov-08 18:01N 37°48' W 122°24'817.0
2017-Nov-08 17:31N 37°55' W 122°28'2 4.3
2017-Nov-08 17:00N 37°57' W 122°30'1020.7
2017-Nov-08 16:31N 37°48' W 122°24'1018.9
2017-Nov-08 16:00N 37°56' W 122°29'4 7.5
2017-Nov-08 15:30N 37°54' W 122°26'4 8.1
2017-Nov-08 15:01N 37°50' W 122°24'917.1
2017-Nov-08 14:30N 37°57' W 122°31'0 0.0
2017-Nov-08 14:00N 37°57' W 122°31'  
Track history (hours):
 
Tides and Currents Weather Stations Pressure Air Temp Water Temp Dewpoint Dewpoint Depression Visibility Wind Speed Wind Dir Waves Ship Positions

Del Norte

Owner: Golden Gate Bridge,Hwy & Transportation District, Larkspur, CA. More information available from US FCC via Universal Licensing System and Coast Guard Vessel Documentation Center.

Last reported at 2017-Nov-18 06:00 UTC. Time now 2017-Nov-22 09:22 UTC.
Position N 37°57' W 122°30'.

Length 49 m.

Type: High speed craft. MMSI: 366990520.

Date/timePositionNaut miles runAvg speedWind from/ knotsBaromVisibWave heightAir tempDewpointWater temp
2017-Nov-18 06:00N 37°57' W 122°30'1020.8
2017-Nov-18 05:30N 37°48' W 122°24'1019.1
2017-Nov-18 05:00N 37°56' W 122°30'0 0.4
2017-Nov-18 04:30N 37°56' W 122°29'1019.1
2017-Nov-18 04:00N 37°48' W 122°24'1020.2
2017-Nov-18 03:30N 37°56' W 122°30'0 0.8
2017-Nov-18 03:00N 37°57' W 122°30'1020.9
2017-Nov-18 02:30N 37°48' W 122°24'5 9.8
2017-Nov-18 02:01N 37°52' W 122°25'611.6
2017-Nov-18 01:31N 37°57' W 122°30'1020.7
2017-Nov-18 01:00N 37°48' W 122°24'4 8.3
2017-Nov-18 00:31N 37°52' W 122°25'713.1
2017-Nov-18 00:00N 37°57' W 122°30'1020.9
2017-Nov-17 23:30N 37°48' W 122°24'1019.5
2017-Nov-17 23:00N 37°56' W 122°30'1 1.2
2017-Nov-17 22:30N 37°57' W 122°30'0 0.0
2017-Nov-17 22:00N 37°57' W 122°30'1019.1
2017-Nov-17 21:31N 37°49' W 122°23'4 7.7
2017-Nov-17 21:00N 37°52' W 122°25'611.6
2017-Nov-17 20:30N 37°57' W 122°30'1020.0
2017-Nov-17 20:01N 37°49' W 122°23'4 7.5
2017-Nov-17 19:31N 37°52' W 122°25'612.7
2017-Nov-17 19:00N 37°57' W 122°30'3 6.1
2017-Nov-17 18:31N 37°55' W 122°27'815.7
2017-Nov-17 18:01N 37°48' W 122°24'713.4
2017-Nov-17 17:31N 37°54' W 122°27'4 8.0
2017-Nov-17 17:00N 37°57' W 122°30'1020.9
2017-Nov-17 16:30N 37°48' W 122°24'918.5
2017-Nov-17 16:01N 37°56' W 122°29'3 5.2
2017-Nov-17 15:31N 37°54' W 122°26'510.7
2017-Nov-17 15:00N 37°49' W 122°24'917.9
2017-Nov-17 14:30N 37°57' W 122°31'0 0.0
2017-Nov-17 14:00N 37°57' W 122°31'0 0.0
2017-Nov-17 06:00N 37°57' W 122°30'1021.1
2017-Nov-17 05:30N 37°48' W 122°24'1019.1
2017-Nov-17 05:00N 37°56' W 122°29'1 1.0
2017-Nov-17 04:30N 37°56' W 122°29'918.5
2017-Nov-17 04:00N 37°48' W 122°24'1020.3
2017-Nov-17 03:30N 37°57' W 122°30'0 0.5
2017-Nov-17 03:00N 37°57' W 122°30'1021.0
2017-Nov-17 02:30N 37°48' W 122°24'3 5.4
2017-Nov-17 02:01N 37°50' W 122°24'816.0
2017-Nov-17 01:30N 37°57' W 122°30'1021.0
2017-Nov-17 01:00N 37°48' W 122°24'4 8.4
2017-Nov-17 00:31N 37°52' W 122°25'713.1
2017-Nov-17 00:01N 37°57' W 122°30'1020.8
2017-Nov-16 23:30N 37°48' W 122°24'918.9
2017-Nov-16 23:00N 37°56' W 122°29'1 2.4
2017-Nov-16 22:30N 37°57' W 122°30'0 0.0
2017-Nov-16 22:00N 37°57' W 122°30'1020.2
2017-Nov-16 21:31N 37°49' W 122°23'3 6.4
2017-Nov-16 21:00N 37°51' W 122°25'713.6
2017-Nov-16 20:30N 37°57' W 122°30'1019.6
2017-Nov-16 20:01N 37°49' W 122°23'4 7.1
2017-Nov-16 19:30N 37°52' W 122°25'612.2
2017-Nov-16 19:00N 37°57' W 122°30'4 8.2
2017-Nov-16 18:31N 37°54' W 122°26'713.5
2017-Nov-16 18:00N 37°48' W 122°24'715.0
2017-Nov-16 17:31N 37°55' W 122°27'3 6.1
2017-Nov-16 17:01N 37°57' W 122°30'1020.5
2017-Nov-16 16:30N 37°48' W 122°24'1019.4
2017-Nov-16 16:00N 37°56' W 122°30'5 9.3
2017-Nov-16 15:31N 37°53' W 122°25'3 5.5
2017-Nov-16 15:01N 37°50' W 122°24'815.6
2017-Nov-16 14:30N 37°57' W 122°31'0 0.0
2017-Nov-16 14:00N 37°57' W 122°31'0 0.0
2017-Nov-16 05:59N 37°57' W 122°30'1021.5
2017-Nov-16 05:30N 37°48' W 122°24'1019.3
2017-Nov-16 05:00N 37°56' W 122°30'0 0.0
2017-Nov-16 04:30N 37°56' W 122°30'1019.3
2017-Nov-16 04:00N 37°48' W 122°24'1020.4
2017-Nov-16 03:30N 37°57' W 122°30'0 0.4
2017-Nov-16 03:00N 37°57' W 122°30'1020.9
2017-Nov-16 02:30N 37°48' W 122°24'3 5.3
2017-Nov-16 02:01N 37°50' W 122°24'815.9
2017-Nov-16 01:30N 37°57' W 122°30'1020.8
2017-Nov-16 01:00N 37°48' W 122°24'2 4.7
2017-Nov-16 00:31N 37°50' W 122°24'816.2
2017-Nov-16 00:00N 37°57' W 122°30'1021.0
2017-Nov-15 23:30N 37°48' W 122°24'918.7
2017-Nov-15 23:00N 37°56' W 122°29'1 2.5
2017-Nov-15 22:30N 37°57' W 122°30'0 0.0
2017-Nov-15 22:00N 37°57' W 122°30'1020.4
2017-Nov-15 21:31N 37°48' W 122°23'3 6.7
2017-Nov-15 21:00N 37°51' W 122°25'713.6
2017-Nov-15 20:30N 37°57' W 122°30'1020.8
2017-Nov-15 20:01N 37°48' W 122°23'4 7.7
2017-Nov-15 19:31N 37°52' W 122°25'612.5
2017-Nov-15 19:00N 37°57' W 122°30'2 4.1
2017-Nov-15 18:30N 37°56' W 122°28'917.6
2017-Nov-15 18:00N 37°48' W 122°24'612.7
2017-Nov-15 17:30N 37°54' W 122°27'4 8.2
2017-Nov-15 17:00N 37°57' W 122°30'1020.7
2017-Nov-15 16:30N 37°48' W 122°24'1019.3
2017-Nov-15 16:00N 37°56' W 122°30'5 9.2
2017-Nov-15 15:31N 37°53' W 122°25'3 5.6
2017-Nov-15 15:01N 37°50' W 122°24'815.9
2017-Nov-15 14:30N 37°57' W 122°31'0 0.0
2017-Nov-15 14:00N 37°57' W 122°31'0 0.0
2017-Nov-15 05:59N 37°57' W 122°30'1021.4
2017-Nov-15 05:30N 37°48' W 122°24'1019.1
2017-Nov-15 05:00N 37°56' W 122°29'1 1.1
2017-Nov-15 04:30N 37°56' W 122°29'918.4
2017-Nov-15 04:01N 37°48' W 122°24'1020.5
2017-Nov-15 03:30N 37°57' W 122°30'0 0.3
2017-Nov-15 03:00N 37°57' W 122°30'1020.9
2017-Nov-15 02:30N 37°48' W 122°24'611.2
2017-Nov-15 02:00N 37°53' W 122°26'510.1
2017-Nov-15 01:30N 37°57' W 122°30'1021.0
2017-Nov-15 01:00N 37°48' W 122°24'2 4.6
2017-Nov-15 00:30N 37°50' W 122°24'816.4
2017-Nov-15 00:00N 37°57' W 122°30'1020.8
2017-Nov-14 23:31N 37°48' W 122°24'1019.3
2017-Nov-14 23:00N 37°56' W 122°30'1 1.7
2017-Nov-14 22:30N 37°57' W 122°30'0 0.0
2017-Nov-14 22:00N 37°57' W 122°30'1019.6
2017-Nov-14 21:31N 37°49' W 122°23'2 4.5
2017-Nov-14 21:00N 37°51' W 122°24'815.0
2017-Nov-14 20:30N 37°57' W 122°30'1019.8
2017-Nov-14 20:01N 37°49' W 122°23'3 6.7
2017-Nov-14 19:30N 37°52' W 122°25'713.2
2017-Nov-14 19:00N 37°57' W 122°30'5 9.5
2017-Nov-14 18:30N 37°54' W 122°26'612.2
2017-Nov-14 18:00N 37°48' W 122°24'1019.8
2017-Nov-14 17:30N 37°56' W 122°30'2 3.6
2017-Nov-14 17:00N 37°56' W 122°28'816.7
2017-Nov-14 16:30N 37°48' W 122°24'1019.5
2017-Nov-14 16:00N 37°56' W 122°30'4 7.2
2017-Nov-14 15:30N 37°54' W 122°26'510.6
2017-Nov-14 15:00N 37°50' W 122°24'917.7
2017-Nov-14 14:30N 37°57' W 122°31'0 0.0
2017-Nov-14 14:00N 37°57' W 122°31'0 0.0
2017-Nov-14 06:00N 37°57' W 122°30'1020.8
2017-Nov-14 05:30N 37°48' W 122°24'917.7
2017-Nov-14 05:00N 37°56' W 122°28'1 1.4
2017-Nov-14 04:31N 37°56' W 122°29'918.6
2017-Nov-14 04:00N 37°48' W 122°24'1020.0
2017-Nov-14 03:30N 37°56' W 122°30'0 0.8
2017-Nov-14 03:00N 37°57' W 122°30'1020.9
2017-Nov-14 02:30N 37°48' W 122°24'3 6.6
2017-Nov-14 02:01N 37°51' W 122°24'714.8
2017-Nov-14 01:30N 37°57' W 122°30'1020.9
2017-Nov-14 01:00N 37°48' W 122°24'3 6.3
2017-Nov-14 00:31N 37°51' W 122°25'814.9
2017-Nov-14 00:00N 37°57' W 122°30'1021.0
2017-Nov-13 23:31N 37°48' W 122°24'918.4
2017-Nov-13 23:01N 37°56' W 122°29'2 3.0
2017-Nov-13 22:30N 37°57' W 122°31'0 0.0
2017-Nov-13 22:00N 37°57' W 122°31'  
2017-Nov-11 04:47N 37°57' W 122°31'0 0.0
2017-Nov-11 04:30N 37°57' W 122°31'0 0.1
2017-Nov-11 04:00N 37°57' W 122°30'714.2
2017-Nov-11 03:31N 37°52' W 122°24'1 1.2
2017-Nov-11 03:01N 37°51' W 122°25'714.4
2017-Nov-11 02:30N 37°57' W 122°30'1021.1
2017-Nov-11 02:00N 37°48' W 122°24'4 8.1
2017-Nov-11 01:31N 37°52' W 122°25'713.4
2017-Nov-11 01:01N 37°57' W 122°30'1020.8
2017-Nov-11 00:30N 37°48' W 122°24'5 9.4
2017-Nov-11 00:00N 37°52' W 122°25'612.1
2017-Nov-10 23:30N 37°57' W 122°30'1021.4
2017-Nov-10 23:01N 37°48' W 122°24'714.1
2017-Nov-10 22:30N 37°54' W 122°27'4 7.4
2017-Nov-10 22:00N 37°57' W 122°31'0 0.0
2017-Nov-10 21:30N 37°57' W 122°31'0 0.0
2017-Nov-10 21:01N 37°57' W 122°31'0 0.0
2017-Nov-10 20:30N 37°57' W 122°31'0 0.1
2017-Nov-10 19:59N 37°57' W 122°30'0 0.0
2017-Nov-10 19:30N 37°57' W 122°30'918.8
2017-Nov-10 19:01N 37°49' W 122°24'3 5.2
2017-Nov-10 18:31N 37°52' W 122°25'713.5
2017-Nov-10 18:00N 37°57' W 122°30'3 5.3
2017-Nov-10 17:30N 37°55' W 122°28'816.3
2017-Nov-10 17:00N 37°48' W 122°24'1019.2
2017-Nov-10 16:30N 37°56' W 122°29'0 0.1
2017-Nov-10 16:00N 37°56' W 122°29'919.1
2017-Nov-10 15:31N 37°48' W 122°24'1020.8
2017-Nov-10 15:00N 37°57' W 122°30'817.0
2017-Nov-10 14:31N 37°50' W 122°24'612.2
2017-Nov-10 14:00N 37°55' W 122°28'2 0.3
2017-Nov-10 06:00N 37°57' W 122°30'1021.0
2017-Nov-10 05:30N 37°48' W 122°24'1019.1
2017-Nov-10 05:01N 37°56' W 122°29'0 0.7
2017-Nov-10 04:30N 37°56' W 122°29'918.1
2017-Nov-10 04:00N 37°48' W 122°24'1019.8
2017-Nov-10 03:30N 37°56' W 122°30'0 0.7
2017-Nov-10 03:00N 37°57' W 122°30'1021.0
2017-Nov-10 02:30N 37°48' W 122°24'5 9.4
2017-Nov-10 02:00N 37°52' W 122°25'612.2
2017-Nov-10 01:31N 37°57' W 122°30'1020.8
2017-Nov-10 01:00N 37°48' W 122°24'510.6
2017-Nov-10 00:31N 37°53' W 122°26'510.9
2017-Nov-10 00:00N 37°57' W 122°30'1021.0
2017-Nov-09 23:30N 37°48' W 122°24'1018.9
2017-Nov-09 22:59N 37°56' W 122°30'1 1.7
2017-Nov-09 22:31N 37°57' W 122°31'0 0.0
2017-Nov-09 22:00N 37°57' W 122°31'1020.6
2017-Nov-09 21:31N 37°48' W 122°23'4 8.9
2017-Nov-09 21:01N 37°52' W 122°25'612.0
2017-Nov-09 20:30N 37°57' W 122°31'1020.9
2017-Nov-09 20:01N 37°48' W 122°23'4 8.5
2017-Nov-09 19:31N 37°52' W 122°25'612.2
2017-Nov-09 19:00N 37°57' W 122°30'3 6.1
2017-Nov-09 18:31N 37°55' W 122°27'815.8
2017-Nov-09 18:00N 37°48' W 122°24'714.2
2017-Nov-09 17:31N 37°54' W 122°27'3 6.9
2017-Nov-09 17:00N 37°57' W 122°30'1020.9
2017-Nov-09 16:30N 37°48' W 122°24'1018.4
2017-Nov-09 15:58N 37°56' W 122°30'4 7.9
2017-Nov-09 15:31N 37°54' W 122°26'5 9.2
2017-Nov-09 15:01N 37°50' W 122°24'917.1
2017-Nov-09 14:30N 37°57' W 122°31'0 0.0
2017-Nov-09 14:00N 37°57' W 122°31'0 0.0
2017-Nov-09 06:04N 37°57' W 122°30'1 8.1
2017-Nov-09 06:00N 37°56' W 122°30'1019.9
2017-Nov-09 05:30N 37°48' W 122°24'1019.3
2017-Nov-09 05:00N 37°56' W 122°30'0 0.8
2017-Nov-09 04:30N 37°56' W 122°29'918.4
2017-Nov-09 04:00N 37°48' W 122°24'1020.1
2017-Nov-09 03:30N 37°57' W 122°30'0 0.5
2017-Nov-09 03:00N 37°57' W 122°30'1020.8
2017-Nov-09 02:30N 37°48' W 122°24'2 5.0
2017-Nov-09 02:01N 37°50' W 122°24'816.2
2017-Nov-09 01:30N 37°57' W 122°30'1020.9
2017-Nov-09 01:00N 37°48' W 122°24'4 8.4
2017-Nov-09 00:31N 37°52' W 122°25'712.9
2017-Nov-09 00:00N 37°57' W 122°30'1021.1
2017-Nov-08 23:30N 37°48' W 122°24'918.9
2017-Nov-08 23:01N 37°56' W 122°29'1 2.3
2017-Nov-08 22:30N 37°57' W 122°30'0 0.0
2017-Nov-08 22:00N 37°57' W 122°30'1020.2
2017-Nov-08 21:31N 37°49' W 122°23'3 6.3
2017-Nov-08 21:01N 37°51' W 122°25'713.9
2017-Nov-08 20:30N 37°57' W 122°30'1020.0
2017-Nov-08 20:01N 37°49' W 122°23'4 7.1
2017-Nov-08 19:31N 37°52' W 122°25'612.9
2017-Nov-08 19:00N 37°57' W 122°30'2 4.5
2017-Nov-08 18:30N 37°56' W 122°28'917.2
2017-Nov-08 18:01N 37°48' W 122°24'817.0
2017-Nov-08 17:31N 37°55' W 122°28'2 4.3
2017-Nov-08 17:00N 37°57' W 122°30'1020.7
2017-Nov-08 16:31N 37°48' W 122°24'1018.9
2017-Nov-08 16:00N 37°56' W 122°29'4 7.5
2017-Nov-08 15:30N 37°54' W 122°26'4 8.1
2017-Nov-08 15:01N 37°50' W 122°24'917.1
2017-Nov-08 14:30N 37°57' W 122°31'0 0.0
2017-Nov-08 14:00N 37°57' W 122°31'  

Dump ship's entire track history